Time;durP1;ratioP1;P1;durP2;ratioP2;P2;SDS_P1;SDS_P2;PMS_P1;PMS_P2;Temp;Humidity;BMP_temperature;BMP_pressure;BME280_temperature;BME280_humidity;BME280_pressure;Samples;Min_cycle;Max_cycle;Signal;HPM_P1;HPM_P2
2023/01/30 00:11:34;;;;;;;12.07;6.93;;;;;;;-2.59;71.23;100190.97;30857691;28;96585;-63
2023/01/30 00:26:34;;;;;;;11.73;7.03;;;;;;;-2.69;72.03;100171.53;30855642;28;96761;-63
2023/01/30 00:56:54;;;;;;;17.83;7.88;;;;;;;-3.13;72.07;100097.47;30854135;28;96596;-63
2023/01/30 01:11:54;;;;;;;10.93;6.38;;;;;;;-3.30;72.67;100069.75;30853551;28;96620;-63
2023/01/30 01:26:54;;;;;;;10.93;7.05;;;;;;;-3.48;73.38;100054.22;30851449;28;97923;-63
2023/01/30 01:41:55;;;;;;;12.77;8.05;;;;;;;-3.46;73.61;100028.94;30851674;28;96713;-63
2023/01/30 01:56:55;;;;;;;11.80;7.25;;;;;;;-3.11;74.34;100004.44;30864724;28;96835;-63
2023/01/30 02:11:59;;;;;;;13.43;6.97;;;;;;;-2.76;73.99;99965.91;30868962;28;97446;-63
2023/01/30 02:27:20;;;;;;;17.63;9.27;;;;;;;-2.74;73.50;99927.53;30866325;28;96706;-63
2023/01/30 02:42:36;;;;;;;14.45;8.90;;;;;;;-2.65;74.18;99896.59;30865855;28;98510;-63
2023/01/30 02:57:36;;;;;;;6.13;4.68;;;;;;;-2.50;73.64;99863.53;30864140;28;96663;-63
2023/01/30 03:12:48;;;;;;;18.45;9.55;;;;;;;-2.49;73.51;99829.53;30861792;28;96588;-63
2023/01/30 03:27:50;;;;;;;15.73;8.15;;;;;;;-2.43;73.59;99807.47;30861242;28;96679;-63
2023/01/30 03:42:50;;;;;;;14.93;9.10;;;;;;;-2.31;73.30;99791.03;30859126;28;97487;-63
2023/01/30 03:57:55;;;;;;;16.90;9.85;;;;;;;-2.24;73.83;99749.72;30857997;28;96764;-63
2023/01/30 04:12:56;;;;;;;18.48;8.38;;;;;;;-2.25;73.92;99738.44;30856361;28;96744;-63
2023/01/30 04:27:56;;;;;;;11.95;5.63;;;;;;;-1.97;72.58;99663.56;30868916;28;98557;-63
2023/01/30 04:42:56;;;;;;;6.32;4.70;;;;;;;-1.87;71.66;99641.09;30776452;28;96615;-63
2023/01/30 04:57:57;;;;;;;9.00;6.25;;;;;;;-1.74;70.68;99590.63;30729573;28;96592;-62
2023/01/30 05:13:02;;;;;;;10.23;5.95;;;;;;;-1.62;70.98;99571.50;30769408;28;97194;-62
2023/01/30 05:28:02;;;;;;;11.05;7.10;;;;;;;-1.60;70.79;99558.31;30855602;28;96838;-62
2023/01/30 05:43:02;;;;;;;12.02;7.55;;;;;;;-1.59;70.88;99541.72;30865850;28;96995;-64
2023/01/30 05:58:03;;;;;;;9.82;6.35;;;;;;;-1.47;71.46;99495.63;30864380;28;96700;-62
2023/01/30 06:13:03;;;;;;;7.15;4.88;;;;;;;-1.39;70.62;99494.09;30865585;28;96726;-64
2023/01/30 06:28:04;;;;;;;16.25;7.82;;;;;;;-1.24;70.40;99483.50;30863749;28;96731;-62
2023/01/30 06:43:04;;;;;;;20.17;5.53;;;;;;;-1.07;70.13;99443.84;30860515;28;96738;-62
2023/01/30 06:58:13;;;;;;;12.07;7.28;;;;;;;-0.93;69.93;99447.22;30861105;28;96624;-62
2023/01/30 07:13:13;;;;;;;15.40;6.72;;;;;;;-0.87;69.69;99421.47;30857565;28;96932;-64
2023/01/30 07:28:14;;;;;;;11.77;6.85;;;;;;;-0.77;69.58;99421.59;30857623;28;96736;-63
2023/01/30 07:43:14;;;;;;;6.00;3.80;;;;;;;-0.85;70.04;99410.88;30856236;28;96645;-63
2023/01/30 07:58:15;;;;;;;7.32;5.78;;;;;;;-1.04;71.46;99396.59;30852434;28;96710;-63
2023/01/30 08:13:15;;;;;;;10.75;6.45;;;;;;;-1.05;72.29;99374.00;30828037;28;97246;-63
2023/01/30 08:28:16;;;;;;;8.93;5.07;;;;;;;-0.78;72.47;99367.63;30790024;28;97145;-71
2023/01/30 08:43:16;;;;;;;16.65;6.35;;;;;;;-0.45;72.12;99316.25;30763830;28;97463;-66
2023/01/30 08:58:17;;;;;;;10.20;7.38;;;;;;;-0.35;72.03;99303.28;30799975;28;97729;-67
2023/01/30 09:13:18;;;;;;;7.72;5.88;;;;;;;-0.13;72.65;99301.56;30799943;28;97029;-66
2023/01/30 09:28:18;;;;;;;11.38;5.78;;;;;;;-0.02;72.96;99289.25;30807940;28;97187;-66
2023/01/30 09:43:33;;;;;;;12.10;6.80;;;;;;;0.11;72.84;99277.75;30802590;28;97309;-63
2023/01/30 09:58:48;;;;;;;11.73;6.55;;;;;;;0.15;73.52;99261.69;30760932;28;97178;-67
2023/01/30 10:13:48;;;;;;;;;;;;;;;0.06;74.14;99248.53;30777021;28;96687;-63
2023/01/30 10:29:04;;;;;;;12.57;7.47;;;;;;;-0.14;75.46;99227.41;30769757;28;98378;-66
2023/01/30 10:44:08;;;;;;;11.00;5.43;;;;;;;-0.15;76.36;99222.28;30819486;28;97372;-65
2023/01/30 10:59:29;;;;;;;7.22;3.67;;;;;;;0.20;77.09;99198.44;30849968;28;97237;-63
2023/01/30 11:14:49;;;;;;;8.88;5.22;;;;;;;0.61;77.11;99165.28;30856800;28;97334;-71
2023/01/30 11:29:51;;;;;;;9.98;5.43;;;;;;;0.81;77.21;99149.63;30756070;28;97716;-64
2023/01/30 11:44:59;;;;;;;9.75;5.25;;;;;;;1.13;77.31;99122.38;30804386;28;97118;-65
2023/01/30 12:00:00;;;;;;;10.27;4.75;;;;;;;1.40;77.41;99097.28;30779088;28;97197;-69
2023/01/30 12:15:06;;;;;;;9.10;5.55;;;;;;;1.74;76.83;99081.09;30803623;28;96835;-67
2023/01/30 12:30:30;;;;;;;5.30;2.78;;;;;;;2.24;77.36;99077.34;30852589;28;96974;-66
2023/01/30 12:45:39;;;;;;;;;;;;;;;2.61;76.35;99074.69;30834647;28;96947;-67
2023/01/30 13:01:03;;;;;;;4.13;2.45;;;;;;;2.91;75.58;99077.97;30743047;28;97764;-68
2023/01/30 13:16:03;;;;;;;1.57;1.23;;;;;;;3.10;75.11;99065.66;30814224;28;97267;-67
2023/01/30 13:31:08;;;;;;;3.97;2.03;;;;;;;3.19;75.18;99080.56;30834554;28;97758;-67
2023/01/30 13:46:15;;;;;;;4.65;2.95;;;;;;;3.65;74.33;99091.81;30825830;28;97525;-67
2023/01/30 14:01:16;;;;;;;2.90;1.92;;;;;;;5.73;71.70;99079.22;30835583;28;97706;-67
2023/01/30 14:16:18;;;;;;;4.57;2.13;;;;;;;6.92;68.20;99076.75;30859810;28;97373;-71
2023/01/30 14:31:48;;;;;;;6.13;2.50;;;;;;;8.96;63.07;99096.22;30855100;28;96698;-70
2023/01/30 14:46:53;;;;;;;7.80;2.33;;;;;;;5.82;64.31;99117.84;30852023;28;97489;-65
2023/01/30 15:02:12;;;;;;;4.38;1.98;;;;;;;4.50;66.27;99091.19;30816036;28;97884;-67
2023/01/30 15:17:34;;;;;;;3.42;2.40;;;;;;;3.89;67.80;99103.53;30787375;28;96813;-68
2023/01/30 15:32:34;;;;;;;7.80;2.28;;;;;;;3.54;68.22;99108.69;30802965;28;96781;-67
2023/01/30 15:48:02;;;;;;;7.18;3.47;;;;;;;3.23;68.59;99113.50;30848426;28;96876;-63
2023/01/30 16:03:05;;;;;;;4.32;1.73;;;;;;;3.02;69.16;99109.34;30744439;28;97136;-63
2023/01/30 16:18:20;;;;;;;7.57;2.13;;;;;;;2.96;69.44;99127.53;30808453;28;97494;-66
2023/01/30 16:33:21;;;;;;;5.63;1.95;;;;;;;2.95;69.41;99139.03;30819261;28;97232;-64
2023/01/30 16:48:35;;;;;;;5.05;2.20;;;;;;;3.03;69.63;99134.69;30725923;28;97540;-64
2023/01/30 17:03:40;;;;;;;4.18;2.00;;;;;;;3.08;69.44;99122.91;30838551;28;97194;-64
2023/01/30 17:18:41;;;;;;;5.90;2.08;;;;;;;3.21;69.32;99120.72;30762239;28;96994;-64
2023/01/30 17:33:41;;;;;;;2.10;1.45;;;;;;;3.28;69.37;99137.59;30796937;28;97210;-65
2023/01/30 17:48:43;;;;;;;3.08;1.60;;;;;;;3.01;70.48;99144.53;30789421;28;96943;-64
2023/01/30 18:03:44;;;;;;;3.22;1.10;;;;;;;2.90;71.16;99170.19;30783971;28;97538;-65
2023/01/30 18:18:44;;;;;;;1.02;0.88;;;;;;;2.84;71.61;99211.06;30751597;28;97731;-65
2023/01/30 18:33:46;;;;;;;3.25;1.55;;;;;;;2.51;72.37;99219.31;30731847;28;97862;-65
2023/01/30 18:48:46;;;;;;;5.55;2.10;;;;;;;2.35;73.46;99227.81;30835538;28;97057;-67
2023/01/30 19:03:47;;;;;;;5.40;2.17;;;;;;;2.31;73.88;99252.72;30816292;28;97234;-68
2023/01/30 19:18:48;;;;;;;5.82;2.45;;;;;;;2.27;74.28;99280.25;30789412;28;97381;-67
2023/01/30 19:33:56;;;;;;;6.03;2.63;;;;;;;2.40;74.93;99289.66;30788535;28;96718;-68
2023/01/30 19:48:57;;;;;;;7.15;2.67;;;;;;;2.42;75.18;99288.53;30840074;28;98105;-63
2023/01/30 20:03:59;;;;;;;5.15;2.50;;;;;;;2.58;74.87;99302.91;30857245;28;97169;-63
2023/01/30 20:19:03;;;;;;;5.28;2.00;;;;;;;2.45;74.88;99297.94;30855217;28;96693;-64
2023/01/30 20:34:09;;;;;;;4.03;2.60;;;;;;;2.30;75.58;99324.66;30854288;28;97605;-64
2023/01/30 20:49:18;;;;;;;7.65;2.30;;;;;;;2.08;75.91;99338.88;30853359;28;97327;-64
2023/01/30 21:04:20;;;;;;;5.03;2.00;;;;;;;2.02;76.53;99350.78;30888512;28;96787;-64
2023/01/30 21:19:20;;;;;;;9.07;2.65;;;;;;;2.17;77.48;99381.91;30891393;28;97542;-63
2023/01/30 21:34:21;;;;;;;7.55;2.10;;;;;;;2.34;77.20;99399.63;30892245;28;97257;-64
2023/01/30 21:49:24;;;;;;;7.32;2.00;;;;;;;2.39;76.98;99398.38;30891244;28;96886;-64
2023/01/30 22:04:25;;;;;;;5.15;1.98;;;;;;;2.51;77.70;99463.03;30885856;28;96576;-64
2023/01/30 22:19:25;;;;;;;10.23;2.30;;;;;;;2.63;77.03;99498.75;30866688;28;97683;-63
2023/01/30 22:34:25;;;;;;;12.48;1.63;;;;;;;2.58;77.11;99508.00;30866897;28;97775;-66
2023/01/30 22:49:26;;;;;;;8.50;1.52;;;;;;;2.38;76.88;99513.22;30866353;28;96557;-64
2023/01/30 23:04:26;;;;;;;4.07;1.20;;;;;;;2.51;77.01;99529.56;30865164;28;96622;-63
2023/01/30 23:19:27;;;;;;;10.50;2.25;;;;;;;2.51;76.88;99552.41;30861953;28;96702;-62
2023/01/30 23:34:28;;;;;;;9.93;2.35;;;;;;;2.53;76.61;99561.00;30861702;28;96675;-63
2023/01/30 23:49:28;;;;;;;8.90;1.65;;;;;;;2.57;76.93;99574.72;30860858;28;97059;-64
